createdAt,value
2022-08-16T00:02:13.231Z,15.98
2022-08-16T00:05:16.008Z,16.08
2022-08-16T00:08:36.112Z,16.15
2022-08-16T00:11:40.259Z,16.11
2022-08-16T00:14:42.095Z,16.06
2022-08-16T00:17:56.107Z,16.09
2022-08-16T00:20:59.219Z,16.18
2022-08-16T00:24:04.821Z,16.10
2022-08-16T00:27:06.947Z,16.04
2022-08-16T00:30:19.542Z,16.08
2022-08-16T00:33:30.791Z,16.10
2022-08-16T00:36:32.747Z,16.05
2022-08-16T00:39:34.550Z,16.05
2022-08-16T00:42:36.405Z,16.12
2022-08-16T00:45:57.936Z,16.02
2022-08-16T00:49:03.252Z,15.87
2022-08-16T00:52:05.563Z,15.84
2022-08-16T00:55:28.266Z,16.02
2022-08-16T00:58:44.433Z,16.15
2022-08-16T01:01:46.719Z,16.15
2022-08-16T01:05:09.609Z,16.08
2022-08-16T01:08:35.319Z,15.94
2022-08-16T01:11:36.838Z,15.84
2022-08-16T01:14:58.628Z,15.73
2022-08-16T01:18:01.437Z,15.73
2022-08-16T01:21:22.131Z,15.74
2022-08-16T01:24:52.574Z,15.59
2022-08-16T01:27:59.042Z,15.60
2022-08-16T01:31:01.907Z,15.75
2022-08-16T01:34:04.397Z,15.87
2022-08-16T01:37:11.311Z,15.91
2022-08-16T01:40:15.434Z,15.96
2022-08-16T01:43:17.849Z,15.99
2022-08-16T01:46:43.307Z,15.97
2022-08-16T01:50:41.939Z,15.86
2022-08-16T01:53:13.610Z,15.86
2022-08-16T01:56:34.774Z,15.73
2022-08-16T01:59:38.074Z,15.61
2022-08-16T02:02:43.467Z,15.61
2022-08-16T02:05:51.774Z,15.69
2022-08-16T02:08:55.193Z,15.70
2022-08-16T02:11:59.470Z,15.62
2022-08-16T02:15:26.111Z,15.60
2022-08-16T02:18:30.304Z,15.65
2022-08-16T02:21:34.122Z,15.67
2022-08-16T02:24:41.295Z,15.79
2022-08-16T02:27:50.757Z,15.81
2022-08-16T02:30:55.139Z,15.81
2022-08-16T02:33:57.083Z,15.85
2022-08-16T02:37:08.743Z,15.87
2022-08-16T02:40:13.277Z,15.89
2022-08-16T02:43:18.453Z,15.82
2022-08-16T02:46:20.469Z,15.80
2022-08-16T02:49:59.312Z,15.85
2022-08-16T02:52:55.108Z,15.84
2022-08-16T02:55:59.122Z,15.81
2022-08-16T02:59:02.500Z,15.67
2022-08-16T03:02:13.738Z,15.60
2022-08-16T03:05:18.793Z,15.53
2022-08-16T03:08:50.809Z,15.42
2022-08-16T03:11:45.766Z,15.36
2022-08-16T03:14:48.449Z,15.34
2022-08-16T03:17:54.305Z,15.34
2022-08-16T03:20:59.779Z,15.40
2022-08-16T03:24:01.987Z,15.44
2022-08-16T03:27:04.200Z,15.47
2022-08-16T03:30:17.748Z,15.55
2022-08-16T03:33:25.086Z,15.67
2022-08-16T03:36:32.910Z,15.76
2022-08-16T03:39:39.594Z,15.75
2022-08-16T03:43:19.176Z,15.69
2022-08-16T03:46:07.209Z,15.79
2022-08-16T03:49:13.653Z,15.80
2022-08-16T03:52:18.327Z,15.75
2022-08-16T03:55:22.374Z,15.65
2022-08-16T03:58:31.300Z,15.62
2022-08-16T04:01:35.582Z,15.57
2022-08-16T04:04:37.691Z,15.60
2022-08-16T04:07:41.326Z,15.60
2022-08-16T04:10:43.157Z,15.61
2022-08-16T04:13:59.426Z,15.73
2022-08-16T04:17:15.532Z,15.84
2022-08-16T04:20:23.677Z,15.91
2022-08-16T04:23:32.771Z,15.97
2022-08-16T04:26:35.199Z,15.87
2022-08-16T04:29:43.776Z,15.70
2022-08-16T04:32:49.977Z,15.58
2022-08-16T04:35:54.881Z,15.49
2022-08-16T04:38:58.419Z,15.45
2022-08-16T04:42:01.890Z,15.38
2022-08-16T04:45:14.795Z,15.25
2022-08-16T04:48:22.051Z,15.24
2022-08-16T04:51:36.602Z,15.41
2022-08-16T04:54:43.208Z,15.57
2022-08-16T04:57:45.816Z,15.50
2022-08-16T05:00:55.925Z,15.29
2022-08-16T05:04:01.315Z,15.23
2022-08-16T05:07:20.242Z,15.23
2022-08-16T05:10:35.048Z,15.23
2022-08-16T05:13:40.311Z,15.23
2022-08-16T05:16:45.498Z,15.27
2022-08-16T05:19:57.937Z,15.34
2022-08-16T05:23:09.997Z,15.43
2022-08-16T05:26:19.836Z,15.53
2022-08-16T05:29:22.956Z,15.59
2022-08-16T05:32:47.422Z,15.72
2022-08-16T05:35:55.578Z,15.87
2022-08-16T05:39:07.771Z,16.00
2022-08-16T05:42:11.168Z,16.14
2022-08-16T05:45:21.867Z,16.28
2022-08-16T05:48:27.953Z,16.35
2022-08-16T05:51:40.295Z,16.38
2022-08-16T05:54:47.496Z,16.33
2022-08-16T05:57:52.652Z,16.30
2022-08-16T06:00:56.277Z,16.34
2022-08-16T06:03:59.947Z,16.38
2022-08-16T06:07:25.191Z,16.44
2022-08-16T06:11:02.377Z,16.43
2022-08-16T06:14:13.449Z,16.44
2022-08-16T06:17:19.421Z,16.37
2022-08-16T06:20:35.639Z,16.34
2022-08-16T06:23:46.351Z,16.33
2022-08-16T06:26:57.990Z,16.31
2022-08-16T06:30:11.048Z,16.23
2022-08-16T06:33:22.064Z,16.05
2022-08-16T06:36:26.699Z,16.00
2022-08-16T06:40:05.185Z,16.02
2022-08-16T06:43:20.665Z,16.07
2022-08-16T06:46:39.592Z,16.18
2022-08-16T06:49:52.795Z,16.24
2022-08-16T06:53:01.133Z,16.34
2022-08-16T06:56:14.794Z,16.51
2022-08-16T06:59:52.186Z,16.63
2022-08-16T07:02:59.290Z,16.72
2022-08-16T07:06:05.587Z,16.77
2022-08-16T07:09:15.978Z,16.77
2022-08-16T07:12:20.830Z,16.80
2022-08-16T07:15:50.537Z,16.81
2022-08-16T07:19:01.551Z,16.88
2022-08-16T07:22:36.466Z,17.14
2022-08-16T07:25:30.186Z,17.35
2022-08-16T07:28:32.231Z,16.94
2022-08-16T07:31:37.527Z,16.68
2022-08-16T07:34:48.412Z,16.52
2022-08-16T07:37:52.411Z,16.49
2022-08-16T07:41:20.605Z,16.54
2022-08-16T07:44:27.911Z,16.63
2022-08-16T07:47:51.206Z,16.68
2022-08-16T07:50:55.577Z,16.73
2022-08-16T07:54:09.544Z,16.65
2022-08-16T07:57:14.931Z,16.61
2022-08-16T08:00:26.383Z,16.56
2022-08-16T08:03:36.157Z,16.47
2022-08-16T08:06:44.117Z,16.32
2022-08-16T08:09:50.065Z,16.21
2022-08-16T08:12:55.079Z,16.00
2022-08-16T08:16:03.165Z,15.95
2022-08-16T08:19:12.669Z,16.38
2022-08-16T08:22:18.907Z,16.32
2022-08-16T08:25:52.705Z,16.06
2022-08-16T08:28:54.214Z,15.99
2022-08-16T08:32:04.371Z,15.89
2022-08-16T08:35:27.055Z,15.96
2022-08-16T08:38:45.031Z,15.87
2022-08-16T08:41:50.401Z,15.62
2022-08-16T08:44:55.339Z,15.72
2022-08-16T08:47:58.415Z,15.68
2022-08-16T08:51:09.057Z,15.62
2022-08-16T08:54:20.562Z,15.45
2022-08-16T08:57:25.684Z,15.37
2022-08-16T09:01:07.530Z,15.39
2022-08-16T09:04:14.734Z,15.44
2022-08-16T09:07:22.136Z,15.40
2022-08-16T09:10:29.416Z,15.32
2022-08-16T09:13:35.938Z,15.40
2022-08-16T09:17:01.190Z,15.36
2022-08-16T09:20:05.654Z,15.57
2022-08-16T09:23:10.906Z,15.67
2022-08-16T09:26:44.650Z,15.58
2022-08-16T09:29:45.231Z,15.50
2022-08-16T09:32:51.145Z,15.46
2022-08-16T09:35:54.433Z,15.49
2022-08-16T09:38:59.962Z,15.45
2022-08-16T09:42:03.026Z,15.42
2022-08-16T09:45:11.696Z,15.31
2022-08-16T09:48:36.816Z,15.23
2022-08-16T09:51:41.241Z,15.36
2022-08-16T09:54:44.383Z,15.46
2022-08-16T09:57:53.147Z,15.55
2022-08-16T10:00:55.035Z,15.43
2022-08-16T10:04:02.620Z,15.47
2022-08-16T10:07:15.212Z,15.38
2022-08-16T10:10:30.935Z,15.39
2022-08-16T10:13:36.511Z,15.31
2022-08-16T10:16:40.099Z,15.22
2022-08-16T10:19:43.264Z,15.23
2022-08-16T10:22:45.335Z,15.14
2022-08-16T10:27:17.931Z,15.13
2022-08-16T10:29:09.130Z,15.10
2022-08-16T10:32:10.998Z,14.99
2022-08-16T10:35:12.807Z,14.98
2022-08-16T10:38:27.413Z,15.06
2022-08-16T10:41:29.781Z,15.12
2022-08-16T10:44:31.550Z,15.05
2022-08-16T10:47:40.370Z,14.95
2022-08-16T10:50:42.310Z,15.06
2022-08-16T10:53:45.957Z,14.99
2022-08-16T10:56:52.807Z,14.86
2022-08-16T10:59:59.034Z,14.77
2022-08-16T11:03:02.749Z,14.76
2022-08-16T11:06:09.542Z,14.66
2022-08-16T11:09:25.306Z,14.56
2022-08-16T11:12:30.527Z,14.51
2022-08-16T11:15:34.355Z,14.35
2022-08-16T11:19:02.822Z,14.26
2022-08-16T11:22:38.806Z,14.23
2022-08-16T11:32:07.711Z,14.12
2022-08-16T11:35:18.316Z,14.13
2022-08-16T11:38:51.526Z,14.06
2022-08-16T11:41:59.694Z,14.05
2022-08-16T11:45:01.642Z,13.89
2022-08-16T11:48:04.701Z,13.84
2022-08-16T11:51:06.704Z,13.83
2022-08-16T11:54:21.171Z,13.79
2022-08-16T11:57:24.075Z,13.78
2022-08-16T12:00:33.678Z,13.91
2022-08-16T12:03:48.645Z,13.96
2022-08-16T12:06:53.685Z,13.86
2022-08-16T12:09:56.403Z,13.91
2022-08-16T12:12:58.248Z,13.92
2022-08-16T12:16:09.279Z,13.93
2022-08-16T12:19:13.667Z,13.96
2022-08-16T12:22:19.258Z,14.19
2022-08-16T12:25:23.742Z,14.50
2022-08-16T12:28:55.161Z,14.64
2022-08-16T12:32:00.998Z,14.88
2022-08-16T12:35:22.678Z,14.92
2022-08-16T12:38:38.644Z,14.88
2022-08-16T12:41:46.479Z,14.80
2022-08-16T12:44:50.383Z,14.88
2022-08-16T12:48:32.617Z,14.96
2022-08-16T12:51:58.560Z,14.89
2022-08-16T12:54:58.115Z,14.88
2022-08-16T12:58:00.342Z,14.88
2022-08-16T13:01:02.713Z,14.98
2022-08-16T13:04:21.319Z,15.08
2022-08-16T13:07:27.138Z,15.02
2022-08-16T13:10:37.110Z,14.90
2022-08-16T13:13:40.038Z,14.92
2022-08-16T13:16:42.380Z,14.90
2022-08-16T13:23:11.734Z,14.84
2022-08-16T13:26:18.175Z,15.01
2022-08-16T13:29:19.984Z,15.07
2022-08-16T13:32:40.041Z,14.89
2022-08-16T13:35:44.091Z,14.57
2022-08-16T13:38:49.341Z,14.70
2022-08-16T13:41:53.930Z,14.77
2022-08-16T13:44:58.620Z,14.62
2022-08-16T13:48:06.405Z,14.69
2022-08-16T13:51:08.196Z,14.86
2022-08-16T13:54:10.581Z,15.04
2022-08-16T13:57:12.656Z,14.86
2022-08-16T14:00:19.521Z,14.82
2022-08-16T14:03:23.933Z,14.90
2022-08-16T14:06:26.070Z,14.76
2022-08-16T14:09:32.019Z,14.56
2022-08-16T14:12:35.169Z,14.31
2022-08-16T14:15:37.966Z,14.10
2022-08-16T14:18:43.757Z,14.08
2022-08-16T14:22:13.536Z,14.05
2022-08-16T14:25:11.741Z,14.11
2022-08-16T14:28:18.840Z,14.21
2022-08-16T14:31:27.778Z,14.54
2022-08-16T14:34:30.166Z,14.58
2022-08-16T14:37:32.929Z,14.53
2022-08-16T14:40:35.495Z,14.53
2022-08-16T14:43:37.572Z,14.59
2022-08-16T14:46:41.960Z,14.38
2022-08-16T14:49:44.191Z,14.23
2022-08-16T14:52:56.302Z,14.24
2022-08-16T14:55:59.035Z,14.19
2022-08-16T14:59:01.074Z,14.34
2022-08-16T15:02:05.164Z,14.37
2022-08-16T15:05:09.224Z,14.40
2022-08-16T15:08:11.429Z,14.33
2022-08-16T15:11:13.306Z,14.18
2022-08-16T15:14:15.059Z,14.21
2022-08-16T15:17:21.706Z,14.30
2022-08-16T15:20:29.489Z,14.25
2022-08-16T15:23:33.887Z,14.13
2022-08-16T15:26:45.075Z,14.07
2022-08-16T15:29:49.046Z,13.89
2022-08-16T15:33:01.839Z,13.83
2022-08-16T15:36:04.590Z,13.71
2022-08-16T15:39:30.431Z,13.62
2022-08-16T15:42:29.118Z,13.66
2022-08-16T15:45:55.500Z,13.74
2022-08-16T15:48:57.963Z,14.05
2022-08-16T15:52:01.414Z,14.26
2022-08-16T15:55:24.049Z,14.54
2022-08-16T15:58:35.600Z,14.78
2022-08-16T16:01:40.503Z,14.63
2022-08-16T16:04:42.239Z,14.50
2022-08-16T16:07:55.417Z,14.32
2022-08-16T16:11:01.481Z,14.16
2022-08-16T16:14:07.373Z,14.04
2022-08-16T16:17:13.415Z,13.96
2022-08-16T16:20:19.488Z,13.93
2022-08-16T16:23:32.330Z,13.88
2022-08-16T16:26:34.371Z,13.85
2022-08-16T16:29:40.151Z,14.02
2022-08-16T16:32:42.902Z,14.11
2022-08-16T16:35:46.893Z,13.98
2022-08-16T16:38:50.478Z,13.85
2022-08-16T16:41:52.858Z,13.82
2022-08-16T16:45:00.946Z,13.80
2022-08-16T16:48:12.039Z,13.70
2022-08-16T16:51:15.175Z,13.70
2022-08-16T16:54:27.522Z,13.76
2022-08-16T16:57:48.937Z,13.79
2022-08-16T17:00:56.344Z,13.82
2022-08-16T17:04:03.071Z,13.81
2022-08-16T17:07:15.310Z,13.71
2022-08-16T17:10:46.633Z,13.72
2022-08-16T17:13:38.762Z,13.72
2022-08-16T17:16:46.348Z,13.88
2022-08-16T17:19:49.811Z,13.81
2022-08-16T17:22:54.632Z,13.77
2022-08-16T17:25:56.507Z,13.70
2022-08-16T17:29:02.730Z,13.66
2022-08-16T17:32:33.925Z,13.67
2022-08-16T17:35:45.869Z,13.78
2022-08-16T17:38:57.671Z,13.81
2022-08-16T17:42:01.126Z,13.88
2022-08-16T17:45:03.853Z,13.84
2022-08-16T17:48:06.014Z,13.92
2022-08-16T17:51:07.779Z,13.90
2022-08-16T17:54:22.185Z,14.00
2022-08-16T17:57:31.201Z,13.97
2022-08-16T18:00:32.967Z,13.95
2022-08-16T18:04:03.100Z,13.92
2022-08-16T18:07:00.310Z,13.93
2022-08-16T18:10:02.264Z,13.95
2022-08-16T18:13:07.791Z,14.03
2022-08-16T18:16:10.229Z,14.11
2022-08-16T18:19:11.893Z,14.08
2022-08-16T18:22:24.783Z,14.03
2022-08-16T18:25:30.490Z,14.00
2022-08-16T18:28:34.766Z,13.97
2022-08-16T18:31:39.049Z,13.82
2022-08-16T18:34:40.977Z,13.75
2022-08-16T18:37:42.759Z,13.57
2022-08-16T18:40:46.178Z,13.53
2022-08-16T18:43:54.392Z,13.55
2022-08-16T18:47:10.106Z,13.55
2022-08-16T18:53:55.287Z,13.55
2022-08-16T18:56:58.193Z,13.57
2022-08-16T19:00:00.329Z,13.58
2022-08-16T19:03:37.431Z,13.50
2022-08-16T19:06:39.362Z,13.33
2022-08-16T19:09:41.258Z,13.27
2022-08-16T19:12:43.961Z,13.16
2022-08-16T19:15:47.703Z,13.04
2022-08-16T19:18:49.834Z,12.97
2022-08-16T19:21:51.803Z,12.89
2022-08-16T19:24:53.676Z,12.85
2022-08-16T19:28:01.008Z,12.88
2022-08-16T19:31:04.279Z,12.87
2022-08-16T19:34:06.160Z,12.83
2022-08-16T19:37:08.065Z,12.78
2022-08-16T19:40:36.676Z,12.78
2022-08-16T19:43:33.486Z,12.79
2022-08-16T19:46:35.917Z,12.77
2022-08-16T19:49:40.030Z,12.75
2022-08-16T19:52:42.665Z,12.65
2022-08-16T19:55:45.119Z,12.63
2022-08-16T19:59:16.232Z,12.54
2022-08-16T20:02:32.671Z,12.51
2022-08-16T20:05:38.067Z,12.54
2022-08-16T20:08:39.780Z,12.49
2022-08-16T20:11:41.505Z,12.44
2022-08-16T20:14:43.772Z,12.35
2022-08-16T20:17:46.364Z,12.36
2022-08-16T20:20:48.150Z,12.33
2022-08-16T20:23:49.881Z,12.29
2022-08-16T20:26:51.647Z,12.27
2022-08-16T20:29:53.516Z,12.21
2022-08-16T20:32:55.673Z,12.20
2022-08-16T20:35:57.423Z,12.10
2022-08-16T20:39:00.282Z,12.08
2022-08-16T20:42:02.041Z,12.08
2022-08-16T20:45:05.522Z,12.08
2022-08-16T20:48:07.342Z,12.05
2022-08-16T20:51:10.870Z,12.06
2022-08-16T20:54:12.594Z,12.14
2022-08-16T20:57:17.466Z,12.11
2022-08-16T21:00:20.150Z,12.01
2022-08-16T21:03:21.893Z,12.01
2022-08-16T21:06:24.276Z,12.07
2022-08-16T21:09:27.779Z,11.97
2022-08-16T21:12:34.707Z,11.89
2022-08-16T21:15:39.567Z,11.80
2022-08-16T21:18:41.242Z,11.79
2022-08-16T21:21:42.942Z,11.75
2022-08-16T21:24:46.453Z,11.66
2022-08-16T21:28:40.689Z,11.66
2022-08-16T21:31:15.142Z,11.69
2022-08-16T21:34:16.807Z,11.70
2022-08-16T21:37:18.985Z,11.70
2022-08-16T21:40:20.775Z,11.74
2022-08-16T21:43:27.654Z,11.76
2022-08-16T21:46:29.426Z,11.73
2022-08-16T21:49:31.128Z,11.70
2022-08-16T21:52:32.801Z,11.67
2022-08-16T21:55:35.831Z,11.61
2022-08-16T21:58:37.899Z,11.60
2022-08-16T22:01:41.390Z,11.68
2022-08-16T22:04:44.985Z,11.71
2022-08-16T22:07:46.663Z,11.70
2022-08-16T22:11:07.487Z,11.65
2022-08-16T22:14:10.238Z,11.66
2022-08-16T22:17:11.919Z,11.75
2022-08-16T22:20:13.584Z,11.67
2022-08-16T22:23:24.891Z,11.65
2022-08-16T22:26:32.320Z,11.69
2022-08-16T22:29:34.264Z,11.76
2022-08-16T22:32:42.000Z,11.67
2022-08-16T22:36:04.690Z,11.70
2022-08-16T22:39:08.798Z,11.76
2022-08-16T22:42:10.791Z,11.81
2022-08-16T22:45:12.797Z,11.89
2022-08-16T22:48:15.378Z,11.97
2022-08-16T22:51:18.215Z,11.92
2022-08-16T22:54:44.376Z,11.83
2022-08-16T22:57:41.658Z,11.71
2022-08-16T23:00:45.140Z,11.69
2022-08-16T23:03:47.024Z,11.68
2022-08-16T23:06:49.184Z,11.68
2022-08-16T23:09:50.979Z,11.69
2022-08-16T23:12:58.896Z,11.63
2022-08-16T23:16:11.176Z,11.60
2022-08-16T23:19:15.426Z,11.63
2022-08-16T23:22:17.157Z,11.61
2022-08-16T23:25:33.949Z,11.61
2022-08-16T23:28:35.885Z,11.59
2022-08-16T23:31:37.714Z,11.56
2022-08-16T23:34:40.417Z,11.57
2022-08-16T23:37:42.546Z,11.54
2022-08-16T23:40:44.967Z,11.50
2022-08-16T23:43:46.778Z,11.49
2022-08-16T23:46:49.388Z,11.50
2022-08-16T23:50:00.854Z,11.54
2022-08-16T23:53:06.480Z,11.51
2022-08-16T23:56:15.387Z,11.59
2022-08-16T23:59:17.166Z,11.60
